KFPY/FPY METAR and TAF weather

Enter ICAO airport designator
Station Type Date Time Source
KFPY METAR 2021/07/29 19:40 UTC NOAA

KFPY 291940Z AUTO 19009G19KT 5SM -RA OVC031 27/27 A3000 RMK AO2 LTG DSNT SE AND SW P0008 T02730268


Station Type Date Time Source
KFPY Decoded METAR 2021/07/29 19:40 UTC NOAA

Station name not available
Jul 29, 2021 - 03:40 PM EDT / 2021.07.29 1940 UTC
Wind: from the S (190 degrees) at 10 MPH (9 KT) gusting to 22 MPH (19 KT):0
Visibility: 5 mile(s):0
Sky conditions: overcast
Weather: light rain; Lightning observed
Precipitation last hour: 0.08 inches
Temperature: 81.1 F (27.3 C)
Dew Point: 80.2 F (26.8 C)
Relative Humidity: 97%
Pressure (altimeter): 30 in. Hg (1015 hPa)
ob: KFPY 291940Z AUTO 19009G19KT 5SM -RA OVC031 27/27 A3000 RMK AO2 LTG DSNT SE AND SW P0008 T02730268
cycle: 19

Station Type Date Time Source
KFPY TAF UTC NOAA

Error!

Example: see airport list